sensor_id;sensor_type;location;lat;lon;timestamp;pressure;altitude;pressure_sealevel;temperature;humidity
57250;BME280;43102;52.014;-0.680;2022-09-12T00:00:00;100559;;;17.14;76.73
57250;BME280;43102;52.014;-0.680;2022-09-12T00:01:02;100545;;;17.11;76.73
57250;BME280;43102;52.014;-0.680;2022-09-12T00:02:00;100545;;;17.11;76.73
57250;BME280;43102;52.014;-0.680;2022-09-12T00:03:00;100545;;;17.11;76.73
57250;BME280;43102;52.014;-0.680;2022-09-12T00:04:00;100545;;;17.11;76.73
57250;BME280;43102;52.014;-0.680;2022-09-12T00:05:00;100545;;;17.11;76.73
57250;BME280;43102;52.014;-0.680;2022-09-12T00:06:00;100549;;;17.02;76.95
57250;BME280;43102;52.014;-0.680;2022-09-12T00:07:00;100549;;;17.02;76.95
57250;BME280;43102;52.014;-0.680;2022-09-12T00:08:00;100549;;;17.02;76.95
57250;BME280;43102;52.014;-0.680;2022-09-12T00:09:01;100549;;;17.02;76.95
57250;BME280;43102;52.014;-0.680;2022-09-12T00:10:00;100549;;;17.02;76.95
57250;BME280;43102;52.014;-0.680;2022-09-12T00:11:03;100538;;;16.97;77.14
57250;BME280;43102;52.014;-0.680;2022-09-12T00:12:00;100538;;;16.97;77.14
57250;BME280;43102;52.014;-0.680;2022-09-12T00:13:00;100538;;;16.97;77.14
57250;BME280;43102;52.014;-0.680;2022-09-12T00:14:00;100538;;;16.97;77.14
57250;BME280;43102;52.014;-0.680;2022-09-12T00:15:00;100538;;;16.97;77.14
57250;BME280;43102;52.014;-0.680;2022-09-12T00:16:00;100536;;;16.97;77.58
57250;BME280;43102;52.014;-0.680;2022-09-12T00:17:00;100536;;;16.97;77.58
57250;BME280;43102;52.014;-0.680;2022-09-12T00:18:00;100536;;;16.97;77.58
57250;BME280;43102;52.014;-0.680;2022-09-12T00:19:00;100536;;;16.97;77.58
57250;BME280;43102;52.014;-0.680;2022-09-12T00:20:00;100536;;;16.97;77.58
57250;BME280;43102;52.014;-0.680;2022-09-12T00:21:01;100532;;;16.95;77.73
57250;BME280;43102;52.014;-0.680;2022-09-12T00:22:00;100532;;;16.95;77.73
57250;BME280;43102;52.014;-0.680;2022-09-12T00:23:00;100532;;;16.95;77.73
57250;BME280;43102;52.014;-0.680;2022-09-12T00:24:00;100532;;;16.95;77.73
57250;BME280;43102;52.014;-0.680;2022-09-12T00:25:00;100532;;;16.95;77.73
57250;BME280;43102;52.014;-0.680;2022-09-12T00:26:02;100528;;;16.94;77.82
57250;BME280;43102;52.014;-0.680;2022-09-12T00:27:00;100528;;;16.94;77.82
57250;BME280;43102;52.014;-0.680;2022-09-12T00:28:00;100528;;;16.94;77.82
57250;BME280;43102;52.014;-0.680;2022-09-12T00:29:00;100528;;;16.94;77.82
57250;BME280;43102;52.014;-0.680;2022-09-12T00:30:00;100528;;;16.94;77.82
57250;BME280;43102;52.014;-0.680;2022-09-12T00:31:02;100532;;;16.97;77.80
57250;BME280;43102;52.014;-0.680;2022-09-12T00:32:00;100532;;;16.97;77.80
57250;BME280;43102;52.014;-0.680;2022-09-12T00:33:00;100532;;;16.97;77.80
57250;BME280;43102;52.014;-0.680;2022-09-12T00:34:00;100532;;;16.97;77.80
57250;BME280;43102;52.014;-0.680;2022-09-12T00:35:00;100532;;;16.97;77.80
57250;BME280;43102;52.014;-0.680;2022-09-12T00:36:02;100526;;;16.98;77.72
57250;BME280;43102;52.014;-0.680;2022-09-12T00:37:00;100526;;;16.98;77.72
57250;BME280;43102;52.014;-0.680;2022-09-12T00:38:00;100526;;;16.98;77.72
57250;BME280;43102;52.014;-0.680;2022-09-12T00:39:00;100526;;;16.98;77.72
57250;BME280;43102;52.014;-0.680;2022-09-12T00:40:00;100526;;;16.98;77.72
57250;BME280;43102;52.014;-0.680;2022-09-12T00:41:00;100527;;;16.96;77.64
57250;BME280;43102;52.014;-0.680;2022-09-12T00:42:00;100527;;;16.96;77.64
57250;BME280;43102;52.014;-0.680;2022-09-12T00:43:00;100527;;;16.96;77.64
57250;BME280;43102;52.014;-0.680;2022-09-12T00:44:01;100527;;;16.96;77.64
57250;BME280;43102;52.014;-0.680;2022-09-12T00:45:00;100527;;;16.96;77.64
57250;BME280;43102;52.014;-0.680;2022-09-12T00:46:01;100526;;;16.92;78.02
57250;BME280;43102;52.014;-0.680;2022-09-12T00:47:03;100526;;;16.92;78.02
57250;BME280;43102;52.014;-0.680;2022-09-12T00:48:00;100526;;;16.92;78.02
57250;BME280;43102;52.014;-0.680;2022-09-12T00:49:07;100526;;;16.92;78.02
57250;BME280;43102;52.014;-0.680;2022-09-12T00:50:03;100526;;;16.92;78.02
57250;BME280;43102;52.014;-0.680;2022-09-12T00:51:00;100519;;;16.91;77.78
57250;BME280;43102;52.014;-0.680;2022-09-12T00:52:08;100519;;;16.91;77.78
57250;BME280;43102;52.014;-0.680;2022-09-12T00:53:03;100519;;;16.91;77.78
57250;BME280;43102;52.014;-0.680;2022-09-12T00:54:01;100519;;;16.91;77.78
57250;BME280;43102;52.014;-0.680;2022-09-12T00:55:02;100519;;;16.91;77.78
57250;BME280;43102;52.014;-0.680;2022-09-12T00:56:00;100522;;;16.89;77.78
57250;BME280;43102;52.014;-0.680;2022-09-12T00:57:01;100522;;;16.89;77.78
57250;BME280;43102;52.014;-0.680;2022-09-12T00:59:01;100522;;;16.89;77.78
57250;BME280;43102;52.014;-0.680;2022-09-12T01:00:02;100522;;;16.89;77.78
57250;BME280;43102;52.014;-0.680;2022-09-12T01:01:00;100514;;;16.83;78.11
57250;BME280;43102;52.014;-0.680;2022-09-12T01:02:00;100514;;;16.83;78.11
57250;BME280;43102;52.014;-0.680;2022-09-12T01:03:03;100514;;;16.83;78.11
57250;BME280;43102;52.014;-0.680;2022-09-12T01:04:00;100514;;;16.83;78.11
57250;BME280;43102;52.014;-0.680;2022-09-12T01:05:00;100514;;;16.83;78.11
57250;BME280;43102;52.014;-0.680;2022-09-12T01:06:04;100511;;;16.83;78.27
57250;BME280;43102;52.014;-0.680;2022-09-12T01:07:00;100511;;;16.83;78.27
57250;BME280;43102;52.014;-0.680;2022-09-12T01:08:01;100511;;;16.83;78.27
57250;BME280;43102;52.014;-0.680;2022-09-12T01:09:00;100511;;;16.83;78.27
57250;BME280;43102;52.014;-0.680;2022-09-12T01:10:00;100511;;;16.83;78.27
57250;BME280;43102;52.014;-0.680;2022-09-12T01:11:00;100515;;;16.84;78.58
57250;BME280;43102;52.014;-0.680;2022-09-12T01:12:00;100515;;;16.84;78.58
57250;BME280;43102;52.014;-0.680;2022-09-12T01:13:00;100515;;;16.84;78.58
57250;BME280;43102;52.014;-0.680;2022-09-12T01:14:00;100515;;;16.84;78.58
57250;BME280;43102;52.014;-0.680;2022-09-12T01:15:00;100515;;;16.84;78.58
57250;BME280;43102;52.014;-0.680;2022-09-12T01:16:01;100509;;;16.81;79.08
57250;BME280;43102;52.014;-0.680;2022-09-12T01:17:00;100509;;;16.81;79.08
57250;BME280;43102;52.014;-0.680;2022-09-12T01:21:04;100502;;;16.82;78.66
57250;BME280;43102;52.014;-0.680;2022-09-12T01:31:03;100488;;;16.80;78.70
57250;BME280;43102;52.014;-0.680;2022-09-12T01:32:20;100488;;;16.80;78.70
57250;BME280;43102;52.014;-0.680;2022-09-12T01:34:09;100488;;;16.80;78.70
57250;BME280;43102;52.014;-0.680;2022-09-12T01:35:05;100488;;;16.80;78.70
57250;BME280;43102;52.014;-0.680;2022-09-12T01:36:04;100490;;;16.81;78.69
57250;BME280;43102;52.014;-0.680;2022-09-12T01:37:03;100490;;;16.81;78.69
57250;BME280;43102;52.014;-0.680;2022-09-12T01:39:01;100490;;;16.81;78.69
57250;BME280;43102;52.014;-0.680;2022-09-12T01:41:05;100487;;;16.81;79.08
57250;BME280;43102;52.014;-0.680;2022-09-12T01:42:09;100487;;;16.81;79.08
57250;BME280;43102;52.014;-0.680;2022-09-12T01:43:08;100487;;;16.81;79.08
57250;BME280;43102;52.014;-0.680;2022-09-12T01:44:03;100487;;;16.81;79.08
57250;BME280;43102;52.014;-0.680;2022-09-12T01:45:06;100487;;;16.81;79.08
57250;BME280;43102;52.014;-0.680;2022-09-12T01:46:04;100480;;;16.81;79.04
57250;BME280;43102;52.014;-0.680;2022-09-12T01:48:02;100480;;;16.81;79.04
57250;BME280;43102;52.014;-0.680;2022-09-12T01:49:02;100480;;;16.81;79.04
57250;BME280;43102;52.014;-0.680;2022-09-12T01:50:09;100480;;;16.81;79.04
57250;BME280;43102;52.014;-0.680;2022-09-12T01:51:03;100483;;;16.84;78.91
57250;BME280;43102;52.014;-0.680;2022-09-12T01:53:01;100483;;;16.84;78.91
57250;BME280;43102;52.014;-0.680;2022-09-12T01:54:02;100483;;;16.84;78.91
57250;BME280;43102;52.014;-0.680;2022-09-12T01:55:04;100483;;;16.84;78.91
57250;BME280;43102;52.014;-0.680;2022-09-12T01:56:08;100476;;;16.81;78.86
57250;BME280;43102;52.014;-0.680;2022-09-12T01:57:00;100476;;;16.81;78.86
57250;BME280;43102;52.014;-0.680;2022-09-12T01:58:08;100476;;;16.81;78.86
57250;BME280;43102;52.014;-0.680;2022-09-12T01:59:01;100476;;;16.81;78.86
57250;BME280;43102;52.014;-0.680;2022-09-12T02:00:00;100476;;;16.81;78.86
57250;BME280;43102;52.014;-0.680;2022-09-12T02:01:03;100473;;;16.77;79.03
57250;BME280;43102;52.014;-0.680;2022-09-12T02:02:02;100473;;;16.77;79.03
57250;BME280;43102;52.014;-0.680;2022-09-12T02:03:01;100473;;;16.77;79.03
57250;BME280;43102;52.014;-0.680;2022-09-12T02:04:17;100473;;;16.77;79.03
57250;BME280;43102;52.014;-0.680;2022-09-12T02:05:03;100473;;;16.77;79.03
57250;BME280;43102;52.014;-0.680;2022-09-12T02:06:02;100474;;;16.76;79.07
57250;BME280;43102;52.014;-0.680;2022-09-12T02:07:04;100474;;;16.76;79.07
57250;BME280;43102;52.014;-0.680;2022-09-12T02:08:09;100474;;;16.76;79.07
57250;BME280;43102;52.014;-0.680;2022-09-12T02:09:01;100474;;;16.76;79.07
57250;BME280;43102;52.014;-0.680;2022-09-12T02:11:01;100464;;;16.74;79.51
57250;BME280;43102;52.014;-0.680;2022-09-12T02:12:00;100464;;;16.74;79.51
57250;BME280;43102;52.014;-0.680;2022-09-12T02:13:01;100464;;;16.74;79.51
57250;BME280;43102;52.014;-0.680;2022-09-12T02:14:01;100464;;;16.74;79.51
57250;BME280;43102;52.014;-0.680;2022-09-12T02:15:01;100464;;;16.74;79.51
57250;BME280;43102;52.014;-0.680;2022-09-12T02:16:08;100462;;;16.70;80.13
57250;BME280;43102;52.014;-0.680;2022-09-12T02:17:01;100462;;;16.70;80.13
57250;BME280;43102;52.014;-0.680;2022-09-12T02:18:00;100462;;;16.70;80.13
57250;BME280;43102;52.014;-0.680;2022-09-12T02:19:02;100462;;;16.70;80.13
57250;BME280;43102;52.014;-0.680;2022-09-12T02:20:02;100462;;;16.70;80.13
57250;BME280;43102;52.014;-0.680;2022-09-12T02:21:00;100457;;;16.70;79.74
57250;BME280;43102;52.014;-0.680;2022-09-12T02:22:00;100457;;;16.70;79.74
57250;BME280;43102;52.014;-0.680;2022-09-12T02:23:00;100457;;;16.70;79.74
57250;BME280;43102;52.014;-0.680;2022-09-12T02:24:01;100457;;;16.70;79.74
57250;BME280;43102;52.014;-0.680;2022-09-12T02:25:00;100457;;;16.70;79.74
57250;BME280;43102;52.014;-0.680;2022-09-12T02:26:02;100445;;;16.68;79.76
57250;BME280;43102;52.014;-0.680;2022-09-12T02:27:02;100445;;;16.68;79.76
57250;BME280;43102;52.014;-0.680;2022-09-12T02:28:01;100445;;;16.68;79.76
57250;BME280;43102;52.014;-0.680;2022-09-12T02:29:00;100445;;;16.68;79.76
57250;BME280;43102;52.014;-0.680;2022-09-12T02:30:00;100445;;;16.68;79.76
57250;BME280;43102;52.014;-0.680;2022-09-12T02:31:04;100436;;;16.68;79.95
57250;BME280;43102;52.014;-0.680;2022-09-12T02:32:03;100436;;;16.68;79.95
57250;BME280;43102;52.014;-0.680;2022-09-12T02:33:03;100436;;;16.68;79.95
57250;BME280;43102;52.014;-0.680;2022-09-12T02:34:07;100436;;;16.68;79.95
57250;BME280;43102;52.014;-0.680;2022-09-12T02:35:02;100436;;;16.68;79.95
57250;BME280;43102;52.014;-0.680;2022-09-12T02:36:03;100440;;;16.71;80.34
57250;BME280;43102;52.014;-0.680;2022-09-12T02:38:02;100440;;;16.71;80.34
57250;BME280;43102;52.014;-0.680;2022-09-12T02:39:00;100440;;;16.71;80.34
57250;BME280;43102;52.014;-0.680;2022-09-12T02:40:00;100440;;;16.71;80.34
57250;BME280;43102;52.014;-0.680;2022-09-12T02:41:00;100434;;;16.71;80.54
57250;BME280;43102;52.014;-0.680;2022-09-12T02:42:00;100434;;;16.71;80.54
57250;BME280;43102;52.014;-0.680;2022-09-12T02:43:00;100434;;;16.71;80.54
57250;BME280;43102;52.014;-0.680;2022-09-12T02:44:00;100434;;;16.71;80.54
57250;BME280;43102;52.014;-0.680;2022-09-12T02:45:00;100434;;;16.71;80.54
57250;BME280;43102;52.014;-0.680;2022-09-12T02:46:00;100435;;;16.76;81.19
57250;BME280;43102;52.014;-0.680;2022-09-12T02:47:02;100435;;;16.76;81.19
57250;BME280;43102;52.014;-0.680;2022-09-12T02:49:00;100435;;;16.76;81.19
57250;BME280;43102;52.014;-0.680;2022-09-12T02:50:00;100435;;;16.76;81.19
57250;BME280;43102;52.014;-0.680;2022-09-12T02:51:00;100429;;;16.78;81.01
57250;BME280;43102;52.014;-0.680;2022-09-12T02:52:00;100429;;;16.78;81.01
57250;BME280;43102;52.014;-0.680;2022-09-12T02:53:00;100429;;;16.78;81.01
57250;BME280;43102;52.014;-0.680;2022-09-12T02:54:00;100429;;;16.78;81.01
57250;BME280;43102;52.014;-0.680;2022-09-12T02:55:00;100429;;;16.78;81.01
57250;BME280;43102;52.014;-0.680;2022-09-12T02:56:00;100425;;;16.79;81.35
57250;BME280;43102;52.014;-0.680;2022-09-12T02:57:00;100425;;;16.79;81.35
57250;BME280;43102;52.014;-0.680;2022-09-12T02:58:00;100425;;;16.79;81.35
57250;BME280;43102;52.014;-0.680;2022-09-12T02:59:02;100425;;;16.79;81.35
57250;BME280;43102;52.014;-0.680;2022-09-12T03:00:00;100425;;;16.79;81.35
57250;BME280;43102;52.014;-0.680;2022-09-12T03:01:10;100426;;;16.79;81.35
57250;BME280;43102;52.014;-0.680;2022-09-12T03:02:03;100426;;;16.79;81.35
57250;BME280;43102;52.014;-0.680;2022-09-12T03:03:11;100426;;;16.79;81.35
57250;BME280;43102;52.014;-0.680;2022-09-12T03:06:00;100417;;;16.79;81.48
57250;BME280;43102;52.014;-0.680;2022-09-12T03:12:01;100414;;;16.80;81.61
57250;BME280;43102;52.014;-0.680;2022-09-12T03:14:06;100414;;;16.80;81.61
57250;BME280;43102;52.014;-0.680;2022-09-12T03:19:19;100415;;;16.78;81.98
57250;BME280;43102;52.014;-0.680;2022-09-12T03:20:03;100415;;;16.78;81.98
57250;BME280;43102;52.014;-0.680;2022-09-12T03:23:03;100418;;;16.79;82.07
57250;BME280;43102;52.014;-0.680;2022-09-12T03:26:02;100416;;;16.78;82.08
57250;BME280;43102;52.014;-0.680;2022-09-12T03:27:04;100416;;;16.78;82.08
57250;BME280;43102;52.014;-0.680;2022-09-12T03:28:02;100416;;;16.78;82.08
57250;BME280;43102;52.014;-0.680;2022-09-12T03:29:00;100416;;;16.78;82.08
57250;BME280;43102;52.014;-0.680;2022-09-12T03:30:00;100416;;;16.78;82.08
57250;BME280;43102;52.014;-0.680;2022-09-12T03:31:00;100412;;;16.79;82.33
57250;BME280;43102;52.014;-0.680;2022-09-12T03:32:00;100412;;;16.79;82.33
57250;BME280;43102;52.014;-0.680;2022-09-12T03:33:00;100412;;;16.79;82.33
57250;BME280;43102;52.014;-0.680;2022-09-12T03:34:00;100412;;;16.79;82.33
57250;BME280;43102;52.014;-0.680;2022-09-12T03:35:00;100412;;;16.79;82.33
57250;BME280;43102;52.014;-0.680;2022-09-12T03:36:00;100403;;;16.78;81.98
57250;BME280;43102;52.014;-0.680;2022-09-12T03:37:00;100403;;;16.78;81.98
57250;BME280;43102;52.014;-0.680;2022-09-12T03:38:00;100403;;;16.78;81.98
57250;BME280;43102;52.014;-0.680;2022-09-12T03:39:00;100403;;;16.78;81.98
57250;BME280;43102;52.014;-0.680;2022-09-12T03:40:00;100403;;;16.78;81.98
57250;BME280;43102;52.014;-0.680;2022-09-12T03:41:00;100407;;;16.77;82.02
57250;BME280;43102;52.014;-0.680;2022-09-12T03:42:00;100407;;;16.77;82.02
57250;BME280;43102;52.014;-0.680;2022-09-12T03:43:00;100407;;;16.77;82.02
57250;BME280;43102;52.014;-0.680;2022-09-12T03:44:00;100407;;;16.77;82.02
57250;BME280;43102;52.014;-0.680;2022-09-12T03:45:00;100407;;;16.77;82.02
57250;BME280;43102;52.014;-0.680;2022-09-12T03:46:00;100408;;;16.72;82.59
57250;BME280;43102;52.014;-0.680;2022-09-12T03:47:00;100408;;;16.72;82.59
57250;BME280;43102;52.014;-0.680;2022-09-12T03:48:00;100408;;;16.72;82.59
57250;BME280;43102;52.014;-0.680;2022-09-12T03:49:00;100408;;;16.72;82.59
57250;BME280;43102;52.014;-0.680;2022-09-12T03:50:00;100408;;;16.72;82.59
57250;BME280;43102;52.014;-0.680;2022-09-12T03:51:04;100395;;;16.72;82.71
57250;BME280;43102;52.014;-0.680;2022-09-12T03:52:00;100395;;;16.72;82.71
57250;BME280;43102;52.014;-0.680;2022-09-12T03:53:01;100395;;;16.72;82.71
57250;BME280;43102;52.014;-0.680;2022-09-12T03:54:00;100395;;;16.72;82.71
57250;BME280;43102;52.014;-0.680;2022-09-12T03:55:00;100395;;;16.72;82.71
57250;BME280;43102;52.014;-0.680;2022-09-12T03:56:04;100396;;;16.71;82.62
57250;BME280;43102;52.014;-0.680;2022-09-12T03:57:00;100396;;;16.71;82.62
57250;BME280;43102;52.014;-0.680;2022-09-12T03:58:00;100396;;;16.71;82.62
57250;BME280;43102;52.014;-0.680;2022-09-12T03:59:00;100396;;;16.71;82.62
57250;BME280;43102;52.014;-0.680;2022-09-12T04:00:00;100396;;;16.71;82.62
57250;BME280;43102;52.014;-0.680;2022-09-12T04:01:00;100400;;;16.72;82.61
57250;BME280;43102;52.014;-0.680;2022-09-12T04:02:00;100400;;;16.72;82.61
57250;BME280;43102;52.014;-0.680;2022-09-12T04:03:00;100400;;;16.72;82.61
57250;BME280;43102;52.014;-0.680;2022-09-12T04:04:00;100400;;;16.72;82.61
57250;BME280;43102;52.014;-0.680;2022-09-12T04:05:00;100400;;;16.72;82.61
57250;BME280;43102;52.014;-0.680;2022-09-12T04:06:00;100406;;;16.73;82.64
57250;BME280;43102;52.014;-0.680;2022-09-12T04:07:00;100406;;;16.73;82.64
57250;BME280;43102;52.014;-0.680;2022-09-12T04:08:00;100406;;;16.73;82.64
57250;BME280;43102;52.014;-0.680;2022-09-12T04:09:00;100406;;;16.73;82.64
57250;BME280;43102;52.014;-0.680;2022-09-12T04:10:00;100406;;;16.73;82.64
57250;BME280;43102;52.014;-0.680;2022-09-12T04:11:02;100399;;;16.75;82.87
57250;BME280;43102;52.014;-0.680;2022-09-12T04:12:00;100399;;;16.75;82.87
57250;BME280;43102;52.014;-0.680;2022-09-12T04:13:00;100399;;;16.75;82.87
57250;BME280;43102;52.014;-0.680;2022-09-12T04:14:00;100399;;;16.75;82.87
57250;BME280;43102;52.014;-0.680;2022-09-12T04:15:00;100399;;;16.75;82.87
57250;BME280;43102;52.014;-0.680;2022-09-12T04:16:00;100396;;;16.75;83.44
57250;BME280;43102;52.014;-0.680;2022-09-12T04:17:00;100396;;;16.75;83.44
57250;BME280;43102;52.014;-0.680;2022-09-12T04:18:00;100396;;;16.75;83.44
57250;BME280;43102;52.014;-0.680;2022-09-12T04:19:00;100396;;;16.75;83.44
57250;BME280;43102;52.014;-0.680;2022-09-12T04:20:00;100396;;;16.75;83.44
57250;BME280;43102;52.014;-0.680;2022-09-12T04:21:08;100395;;;16.76;83.23
57250;BME280;43102;52.014;-0.680;2022-09-12T04:22:00;100395;;;16.76;83.23
57250;BME280;43102;52.014;-0.680;2022-09-12T04:23:00;100395;;;16.76;83.23
57250;BME280;43102;52.014;-0.680;2022-09-12T04:24:00;100395;;;16.76;83.23
57250;BME280;43102;52.014;-0.680;2022-09-12T04:25:00;100395;;;16.76;83.23
57250;BME280;43102;52.014;-0.680;2022-09-12T04:26:00;100397;;;16.77;83.50
57250;BME280;43102;52.014;-0.680;2022-09-12T04:27:00;100397;;;16.77;83.50
57250;BME280;43102;52.014;-0.680;2022-09-12T04:28:00;100397;;;16.77;83.50
57250;BME280;43102;52.014;-0.680;2022-09-12T04:29:00;100397;;;16.77;83.50
57250;BME280;43102;52.014;-0.680;2022-09-12T04:30:00;100397;;;16.77;83.50
57250;BME280;43102;52.014;-0.680;2022-09-12T04:31:00;100393;;;16.76;83.40
57250;BME280;43102;52.014;-0.680;2022-09-12T04:32:00;100393;;;16.76;83.40
57250;BME280;43102;52.014;-0.680;2022-09-12T04:33:00;100393;;;16.76;83.40
57250;BME280;43102;52.014;-0.680;2022-09-12T04:34:00;100393;;;16.76;83.40
57250;BME280;43102;52.014;-0.680;2022-09-12T04:35:00;100393;;;16.76;83.40
57250;BME280;43102;52.014;-0.680;2022-09-12T04:36:04;100382;;;16.75;83.44
57250;BME280;43102;52.014;-0.680;2022-09-12T04:37:00;100382;;;16.75;83.44
57250;BME280;43102;52.014;-0.680;2022-09-12T04:38:00;100382;;;16.75;83.44
57250;BME280;43102;52.014;-0.680;2022-09-12T04:39:00;100382;;;16.75;83.44
57250;BME280;43102;52.014;-0.680;2022-09-12T04:40:00;100382;;;16.75;83.44
57250;BME280;43102;52.014;-0.680;2022-09-12T04:41:00;100377;;;16.74;83.59
57250;BME280;43102;52.014;-0.680;2022-09-12T04:42:00;100377;;;16.74;83.59
57250;BME280;43102;52.014;-0.680;2022-09-12T04:43:00;100377;;;16.74;83.59
57250;BME280;43102;52.014;-0.680;2022-09-12T04:44:01;100377;;;16.74;83.59
57250;BME280;43102;52.014;-0.680;2022-09-12T04:45:00;100377;;;16.74;83.59
57250;BME280;43102;52.014;-0.680;2022-09-12T04:46:03;100386;;;16.71;84.09
57250;BME280;43102;52.014;-0.680;2022-09-12T04:47:00;100386;;;16.71;84.09
57250;BME280;43102;52.014;-0.680;2022-09-12T04:48:00;100386;;;16.71;84.09
57250;BME280;43102;52.014;-0.680;2022-09-12T04:49:00;100386;;;16.71;84.09
57250;BME280;43102;52.014;-0.680;2022-09-12T04:50:00;100386;;;16.71;84.09
57250;BME280;43102;52.014;-0.680;2022-09-12T04:51:08;100387;;;16.67;84.01
57250;BME280;43102;52.014;-0.680;2022-09-12T04:52:00;100387;;;16.67;84.01
57250;BME280;43102;52.014;-0.680;2022-09-12T04:53:00;100387;;;16.67;84.01
57250;BME280;43102;52.014;-0.680;2022-09-12T04:54:01;100387;;;16.67;84.01
57250;BME280;43102;52.014;-0.680;2022-09-12T04:55:00;100387;;;16.67;84.01
57250;BME280;43102;52.014;-0.680;2022-09-12T04:56:02;100389;;;16.63;84.02
57250;BME280;43102;52.014;-0.680;2022-09-12T04:57:00;100389;;;16.63;84.02
57250;BME280;43102;52.014;-0.680;2022-09-12T04:58:00;100389;;;16.63;84.02
57250;BME280;43102;52.014;-0.680;2022-09-12T04:59:00;100389;;;16.63;84.02
57250;BME280;43102;52.014;-0.680;2022-09-12T05:00:00;100389;;;16.63;84.02
57250;BME280;43102;52.014;-0.680;2022-09-12T05:01:07;100377;;;16.60;83.93
57250;BME280;43102;52.014;-0.680;2022-09-12T05:02:00;100377;;;16.60;83.93
57250;BME280;43102;52.014;-0.680;2022-09-12T05:03:00;100377;;;16.60;83.93
57250;BME280;43102;52.014;-0.680;2022-09-12T05:04:00;100377;;;16.60;83.93
57250;BME280;43102;52.014;-0.680;2022-09-12T05:05:00;100377;;;16.60;83.93
57250;BME280;43102;52.014;-0.680;2022-09-12T05:06:01;100374;;;16.56;83.87
57250;BME280;43102;52.014;-0.680;2022-09-12T05:07:00;100374;;;16.56;83.87
57250;BME280;43102;52.014;-0.680;2022-09-12T05:08:00;100374;;;16.56;83.87
57250;BME280;43102;52.014;-0.680;2022-09-12T05:09:00;100374;;;16.56;83.87
57250;BME280;43102;52.014;-0.680;2022-09-12T05:10:00;100374;;;16.56;83.87
57250;BME280;43102;52.014;-0.680;2022-09-12T05:11:01;100378;;;16.53;83.91
57250;BME280;43102;52.014;-0.680;2022-09-12T05:12:00;100378;;;16.53;83.91
57250;BME280;43102;52.014;-0.680;2022-09-12T05:13:00;100378;;;16.53;83.91
57250;BME280;43102;52.014;-0.680;2022-09-12T05:14:00;100378;;;16.53;83.91
57250;BME280;43102;52.014;-0.680;2022-09-12T05:15:00;100378;;;16.53;83.91
57250;BME280;43102;52.014;-0.680;2022-09-12T05:16:00;100378;;;16.53;84.28
57250;BME280;43102;52.014;-0.680;2022-09-12T05:17:00;100378;;;16.53;84.28
57250;BME280;43102;52.014;-0.680;2022-09-12T05:18:00;100378;;;16.53;84.28
57250;BME280;43102;52.014;-0.680;2022-09-12T05:19:00;100378;;;16.53;84.28
57250;BME280;43102;52.014;-0.680;2022-09-12T05:20:00;100378;;;16.53;84.28
57250;BME280;43102;52.014;-0.680;2022-09-12T05:21:00;100375;;;16.54;84.36
57250;BME280;43102;52.014;-0.680;2022-09-12T05:22:00;100375;;;16.54;84.36
57250;BME280;43102;52.014;-0.680;2022-09-12T05:23:00;100375;;;16.54;84.36
57250;BME280;43102;52.014;-0.680;2022-09-12T05:24:00;100375;;;16.54;84.36
57250;BME280;43102;52.014;-0.680;2022-09-12T05:25:00;100375;;;16.54;84.36
57250;BME280;43102;52.014;-0.680;2022-09-12T05:26:00;100373;;;16.54;84.39
57250;BME280;43102;52.014;-0.680;2022-09-12T05:27:00;100373;;;16.54;84.39
57250;BME280;43102;52.014;-0.680;2022-09-12T05:28:00;100373;;;16.54;84.39
57250;BME280;43102;52.014;-0.680;2022-09-12T05:29:00;100373;;;16.54;84.39
57250;BME280;43102;52.014;-0.680;2022-09-12T05:30:00;100373;;;16.54;84.39
57250;BME280;43102;52.014;-0.680;2022-09-12T05:31:00;100376;;;16.54;84.56
57250;BME280;43102;52.014;-0.680;2022-09-12T05:32:00;100376;;;16.54;84.56
57250;BME280;43102;52.014;-0.680;2022-09-12T05:33:00;100376;;;16.54;84.56
57250;BME280;43102;52.014;-0.680;2022-09-12T05:34:00;100376;;;16.54;84.56
57250;BME280;43102;52.014;-0.680;2022-09-12T05:35:00;100376;;;16.54;84.56
57250;BME280;43102;52.014;-0.680;2022-09-12T05:36:00;100373;;;16.54;84.58
57250;BME280;43102;52.014;-0.680;2022-09-12T05:37:00;100373;;;16.54;84.58
57250;BME280;43102;52.014;-0.680;2022-09-12T05:38:00;100373;;;16.54;84.58
57250;BME280;43102;52.014;-0.680;2022-09-12T05:39:00;100373;;;16.54;84.58
57250;BME280;43102;52.014;-0.680;2022-09-12T05:40:00;100373;;;16.54;84.58
57250;BME280;43102;52.014;-0.680;2022-09-12T05:41:02;100377;;;16.57;84.70
57250;BME280;43102;52.014;-0.680;2022-09-12T05:42:00;100377;;;16.57;84.70
57250;BME280;43102;52.014;-0.680;2022-09-12T05:43:00;100377;;;16.57;84.70
57250;BME280;43102;52.014;-0.680;2022-09-12T05:44:02;100377;;;16.57;84.70
57250;BME280;43102;52.014;-0.680;2022-09-12T05:45:00;100377;;;16.57;84.70
57250;BME280;43102;52.014;-0.680;2022-09-12T05:46:00;100381;;;16.60;85.16
57250;BME280;43102;52.014;-0.680;2022-09-12T05:47:00;100381;;;16.60;85.16
57250;BME280;43102;52.014;-0.680;2022-09-12T05:48:00;100381;;;16.60;85.16
57250;BME280;43102;52.014;-0.680;2022-09-12T05:49:01;100381;;;16.60;85.16
57250;BME280;43102;52.014;-0.680;2022-09-12T05:50:00;100381;;;16.60;85.16
57250;BME280;43102;52.014;-0.680;2022-09-12T05:51:01;100380;;;16.68;85.30
57250;BME280;43102;52.014;-0.680;2022-09-12T05:52:00;100380;;;16.68;85.30
57250;BME280;43102;52.014;-0.680;2022-09-12T05:53:00;100380;;;16.68;85.30
57250;BME280;43102;52.014;-0.680;2022-09-12T05:54:01;100380;;;16.68;85.30
57250;BME280;43102;52.014;-0.680;2022-09-12T05:55:00;100380;;;16.68;85.30
57250;BME280;43102;52.014;-0.680;2022-09-12T05:56:00;100381;;;16.76;84.99
57250;BME280;43102;52.014;-0.680;2022-09-12T05:57:00;100381;;;16.76;84.99
57250;BME280;43102;52.014;-0.680;2022-09-12T05:58:00;100381;;;16.76;84.99